createdAt,value
2017-12-02T00:00:18.947Z,1007.53
2017-12-02T00:00:59.440Z,1007.54
2017-12-02T00:01:40.010Z,1007.57
2017-12-02T00:02:20.533Z,1007.58
2017-12-02T00:03:01.053Z,1007.57
2017-12-02T00:03:41.654Z,1007.56
2017-12-02T00:04:22.210Z,1007.57
2017-12-02T00:05:02.758Z,1007.62
2017-12-02T00:05:43.267Z,1007.56
2017-12-02T00:06:23.785Z,1007.62
2017-12-02T00:07:04.301Z,1007.63
2017-12-02T00:07:44.828Z,1007.62
2017-12-02T00:08:25.368Z,1007.63
2017-12-02T00:09:05.881Z,1007.7
2017-12-02T00:09:46.404Z,1007.64
2017-12-02T00:10:27.033Z,1007.69
2017-12-02T00:11:07.564Z,1007.68
2017-12-02T00:11:48.140Z,1007.69
2017-12-02T00:12:28.685Z,1007.7
2017-12-02T00:13:09.169Z,1007.76
2017-12-02T00:13:49.741Z,1007.73
2017-12-02T00:14:30.250Z,1007.71
2017-12-02T00:15:10.770Z,1007.73
2017-12-02T00:15:51.310Z,1007.73
2017-12-02T00:16:31.895Z,1007.69
2017-12-02T00:17:12.422Z,1007.76
2017-12-02T00:17:52.971Z,1007.7
2017-12-02T00:18:33.511Z,1007.75
2017-12-02T00:19:14.059Z,1007.75
2017-12-02T00:19:54.591Z,1007.76
2017-12-02T00:20:35.140Z,1007.69
2017-12-02T00:21:15.683Z,1007.74
2017-12-02T00:21:56.214Z,1007.76
2017-12-02T00:22:36.761Z,1007.73
2017-12-02T00:23:17.314Z,1007.78
2017-12-02T00:23:57.842Z,1007.74
2017-12-02T00:24:38.407Z,1007.72
2017-12-02T00:25:18.900Z,1007.75
2017-12-02T00:25:59.422Z,1007.72
2017-12-02T00:26:39.968Z,1007.75
2017-12-02T00:27:20.522Z,1007.79
2017-12-02T00:28:01.014Z,1007.77
2017-12-02T00:28:41.556Z,1007.82
2017-12-02T00:29:22.049Z,1007.79
2017-12-02T00:30:02.584Z,1007.81
2017-12-02T00:30:43.140Z,1007.79
2017-12-02T00:31:23.641Z,1007.85
2017-12-02T00:32:04.177Z,1007.83
2017-12-02T00:32:44.715Z,1007.78
2017-12-02T00:33:25.224Z,1007.81
2017-12-02T00:34:05.762Z,1007.82
2017-12-02T00:34:46.328Z,1007.84
2017-12-02T00:35:26.874Z,1007.77
2017-12-02T00:36:07.380Z,1007.8
2017-12-02T00:36:47.906Z,1007.83
2017-12-02T00:37:28.431Z,1007.86
2017-12-02T00:38:08.963Z,1007.87
2017-12-02T00:38:49.514Z,1007.86
2017-12-02T00:39:30.034Z,1007.85
2017-12-02T00:40:10.569Z,1007.83
2017-12-02T00:40:51.113Z,1007.86
2017-12-02T00:41:31.631Z,1007.87
2017-12-02T00:42:12.191Z,1007.88
2017-12-02T00:42:52.695Z,1007.84
2017-12-02T00:43:33.209Z,1007.85
2017-12-02T00:44:13.766Z,1007.79
2017-12-02T00:44:54.271Z,1007.84
2017-12-02T00:45:34.828Z,1007.83
2017-12-02T00:46:15.351Z,1007.81
2017-12-02T00:46:55.862Z,1007.83
2017-12-02T00:47:36.382Z,1007.83
2017-12-02T00:48:16.904Z,1007.87
2017-12-02T00:48:57.452Z,1007.87
2017-12-02T00:49:38.036Z,1007.89
2017-12-02T00:50:18.552Z,1007.88
2017-12-02T00:50:59.076Z,1007.93
2017-12-02T00:51:39.619Z,1007.93
2017-12-02T00:52:20.143Z,1007.93
2017-12-02T00:53:00.709Z,1007.95
2017-12-02T00:53:41.248Z,1007.98
2017-12-02T00:54:21.757Z,1007.98
2017-12-02T00:55:02.300Z,1008.02
2017-12-02T00:55:42.830Z,1008.02
2017-12-02T00:56:23.341Z,1008
2017-12-02T00:57:03.870Z,1008.01
2017-12-02T00:57:44.343Z,1008.05
2017-12-02T00:58:24.903Z,1008.03
2017-12-02T00:59:05.410Z,1008.02
2017-12-02T00:59:45.907Z,1008.08
2017-12-02T01:00:26.466Z,1008.08
2017-12-02T01:01:06.986Z,1008.04
2017-12-02T01:01:47.522Z,1008.05
2017-12-02T01:02:28.122Z,1008.14
2017-12-02T01:03:08.672Z,1008.07
2017-12-02T01:03:49.203Z,1008.06
2017-12-02T01:04:29.750Z,1008.05
2017-12-02T01:05:10.896Z,1008.06
2017-12-02T01:05:51.365Z,1008.1
2017-12-02T01:06:31.951Z,1008.1
2017-12-02T01:07:12.431Z,1008.12
2017-12-02T01:07:52.972Z,1008.11
2017-12-02T01:08:33.510Z,1008.16
2017-12-02T01:09:14.040Z,1008.15
2017-12-02T01:09:54.590Z,1008.18
2017-12-02T01:10:35.105Z,1008.11
2017-12-02T01:11:15.687Z,1008.17
2017-12-02T01:11:56.163Z,1008.15
2017-12-02T01:12:36.755Z,1008.17
2017-12-02T01:13:17.257Z,1008.18
2017-12-02T01:13:57.796Z,1008.19
2017-12-02T01:14:38.348Z,1008.15
2017-12-02T01:15:18.962Z,1008.16
2017-12-02T01:15:59.399Z,1008.2
2017-12-02T01:16:39.960Z,1008.17
2017-12-02T01:17:20.474Z,1008.18
2017-12-02T01:18:01.010Z,1008.2
2017-12-02T01:18:41.552Z,1008.23
2017-12-02T01:19:22.068Z,1008.19
2017-12-02T01:20:02.608Z,1008.18
2017-12-02T01:20:43.177Z,1008.2
2017-12-02T01:21:23.690Z,1008.25
2017-12-02T01:22:04.280Z,1008.24
2017-12-02T01:22:44.762Z,1008.28
2017-12-02T01:23:25.296Z,1008.27
2017-12-02T01:24:05.838Z,1008.29
2017-12-02T01:24:46.338Z,1008.29
2017-12-02T01:25:26.888Z,1008.31
2017-12-02T01:26:07.416Z,1008.31
2017-12-02T01:26:47.929Z,1008.34
2017-12-02T01:27:28.449Z,1008.34
2017-12-02T01:28:08.999Z,1008.38
2017-12-02T01:28:49.499Z,1008.4
2017-12-02T01:29:30.025Z,1008.36
2017-12-02T01:30:10.616Z,1008.34
2017-12-02T01:30:51.137Z,1008.4
2017-12-02T01:31:31.649Z,1008.44
2017-12-02T01:32:12.223Z,1008.36
2017-12-02T01:32:52.742Z,1008.41
2017-12-02T01:33:33.269Z,1008.42
2017-12-02T01:34:13.798Z,1008.45
2017-12-02T01:34:54.368Z,1008.42
2017-12-02T01:35:34.833Z,1008.43
2017-12-02T01:36:15.366Z,1008.42
2017-12-02T01:36:55.949Z,1008.45
2017-12-02T01:37:36.489Z,1008.46
2017-12-02T01:38:16.999Z,1008.45
2017-12-02T01:38:57.518Z,1008.44
2017-12-02T01:39:38.072Z,1008.39
2017-12-02T01:40:18.608Z,1008.44
2017-12-02T01:40:59.145Z,1008.4
2017-12-02T01:41:39.720Z,1008.39
2017-12-02T01:42:20.233Z,1008.43
2017-12-02T01:43:00.804Z,1008.43
2017-12-02T01:43:41.294Z,1008.47
2017-12-02T01:44:21.835Z,1008.41
2017-12-02T01:45:02.364Z,1008.44
2017-12-02T01:45:42.928Z,1008.46
2017-12-02T01:46:23.451Z,1008.47
2017-12-02T01:47:03.998Z,1008.51
2017-12-02T01:47:44.524Z,1008.49
2017-12-02T01:48:25.084Z,1008.52
2017-12-02T01:49:05.586Z,1008.54
2017-12-02T01:49:46.093Z,1008.52
2017-12-02T01:50:26.688Z,1008.55
2017-12-02T01:51:07.196Z,1008.57
2017-12-02T01:51:47.755Z,1008.55
2017-12-02T01:52:28.279Z,1008.53
2017-12-02T01:53:08.800Z,1008.53
2017-12-02T01:53:49.351Z,1008.56
2017-12-02T01:54:29.906Z,1008.58
2017-12-02T01:55:10.442Z,1008.6
2017-12-02T01:55:50.974Z,1008.54
2017-12-02T01:56:31.516Z,1008.59
2017-12-02T01:57:12.042Z,1008.59
2017-12-02T01:57:52.566Z,1008.63
2017-12-02T01:58:33.092Z,1008.6
2017-12-02T01:59:13.632Z,1008.65
2017-12-02T01:59:54.179Z,1008.62
2017-12-02T02:00:34.703Z,1008.63
2017-12-02T02:01:15.278Z,1008.62
2017-12-02T02:01:55.784Z,1008.61
2017-12-02T02:02:36.295Z,1008.58
2017-12-02T02:03:16.815Z,1008.65
2017-12-02T02:03:57.362Z,1008.6
2017-12-02T02:04:37.859Z,1008.64
2017-12-02T02:05:18.411Z,1008.64
2017-12-02T02:05:58.913Z,1008.63
2017-12-02T02:06:39.459Z,1008.65
2017-12-02T02:07:19.984Z,1008.58
2017-12-02T02:08:00.504Z,1008.63
2017-12-02T02:08:41.072Z,1008.6
2017-12-02T02:09:21.644Z,1008.66
2017-12-02T02:10:02.170Z,1008.65
2017-12-02T02:10:42.717Z,1008.63
2017-12-02T02:11:23.273Z,1008.58
2017-12-02T02:12:03.840Z,1008.66
2017-12-02T02:12:44.307Z,1008.66
2017-12-02T02:13:24.841Z,1008.66
2017-12-02T02:14:05.427Z,1008.67
2017-12-02T02:14:45.910Z,1008.66
2017-12-02T02:15:26.443Z,1008.65
2017-12-02T02:16:06.973Z,1008.61
2017-12-02T02:16:47.474Z,1008.65
2017-12-02T02:17:28.009Z,1008.64
2017-12-02T02:18:08.539Z,1008.61
2017-12-02T02:18:49.063Z,1008.65
2017-12-02T02:19:29.618Z,1008.64
2017-12-02T02:20:10.111Z,1008.68
2017-12-02T02:20:50.673Z,1008.66
2017-12-02T02:21:31.202Z,1008.68
2017-12-02T02:22:11.726Z,1008.7
2017-12-02T02:22:52.258Z,1008.68
2017-12-02T02:23:32.819Z,1008.68
2017-12-02T02:24:13.319Z,1008.67
2017-12-02T02:24:53.877Z,1008.64
2017-12-02T02:25:35.071Z,1008.68
2017-12-02T02:26:14.998Z,1008.69
2017-12-02T02:26:55.484Z,1008.68
2017-12-02T02:27:36.049Z,1008.66
2017-12-02T02:28:16.573Z,1008.61
2017-12-02T02:28:57.136Z,1008.66
2017-12-02T02:29:37.679Z,1008.72
2017-12-02T02:30:18.186Z,1008.68
2017-12-02T02:30:58.733Z,1008.68
2017-12-02T02:31:39.270Z,1008.73
2017-12-02T02:32:19.793Z,1008.71
2017-12-02T02:33:00.329Z,1008.75
2017-12-02T02:33:40.858Z,1008.74
2017-12-02T02:34:21.418Z,1008.77
2017-12-02T02:35:01.934Z,1008.72
2017-12-02T02:35:42.473Z,1008.69
2017-12-02T02:36:23.043Z,1008.74
2017-12-02T02:37:03.632Z,1008.71
2017-12-02T02:37:44.145Z,1008.73
2017-12-02T02:38:24.715Z,1008.75
2017-12-02T02:39:05.225Z,1008.79
2017-12-02T02:39:45.775Z,1008.78
2017-12-02T02:40:26.336Z,1008.75
2017-12-02T02:41:06.831Z,1008.81
2017-12-02T02:41:47.371Z,1008.8
2017-12-02T02:42:27.915Z,1008.77
2017-12-02T02:43:08.511Z,1008.79
2017-12-02T02:43:49.004Z,1008.8
2017-12-02T02:44:29.521Z,1008.8
2017-12-02T02:45:10.064Z,1008.8
2017-12-02T02:45:50.614Z,1008.76
2017-12-02T02:46:31.128Z,1008.81
2017-12-02T02:47:11.633Z,1008.84
2017-12-02T02:47:52.210Z,1008.76
2017-12-02T02:48:32.716Z,1008.78
2017-12-02T02:49:13.273Z,1008.81
2017-12-02T02:49:53.803Z,1008.79
2017-12-02T02:50:34.321Z,1008.78
2017-12-02T02:51:14.851Z,1008.8
2017-12-02T02:51:55.392Z,1008.84
2017-12-02T02:52:35.917Z,1008.83
2017-12-02T02:53:16.475Z,1008.86
2017-12-02T02:53:57.001Z,1008.87
2017-12-02T02:54:37.529Z,1008.86
2017-12-02T02:55:18.022Z,1008.89
2017-12-02T02:55:58.576Z,1008.9
2017-12-02T02:56:39.126Z,1008.91
2017-12-02T02:57:19.743Z,1008.88
2017-12-02T02:58:00.239Z,1008.9
2017-12-02T02:58:40.787Z,1008.85
2017-12-02T02:59:21.286Z,1008.86
2017-12-02T03:00:01.795Z,1008.84
2017-12-02T03:00:42.337Z,1008.89
2017-12-02T03:01:22.925Z,1008.94
2017-12-02T03:02:03.428Z,1008.92
2017-12-02T03:02:43.984Z,1008.88
2017-12-02T03:03:24.540Z,1008.88
2017-12-02T03:04:05.068Z,1008.88
2017-12-02T03:04:45.632Z,1008.94
2017-12-02T03:05:26.186Z,1008.91
2017-12-02T03:06:06.718Z,1008.93
2017-12-02T03:06:47.253Z,1008.94
2017-12-02T03:07:27.758Z,1008.89
2017-12-02T03:08:08.300Z,1008.95
2017-12-02T03:08:48.854Z,1008.92
2017-12-02T03:09:29.459Z,1008.89
2017-12-02T03:10:09.924Z,1008.92
2017-12-02T03:10:50.551Z,1008.92
2017-12-02T03:11:31.052Z,1008.93
2017-12-02T03:12:11.595Z,1008.99
2017-12-02T03:12:52.124Z,1008.92
2017-12-02T03:13:32.646Z,1008.93
2017-12-02T03:14:13.196Z,1008.98
2017-12-02T03:14:53.752Z,1008.99
2017-12-02T03:15:34.300Z,1009.05
2017-12-02T03:16:14.846Z,1009.02
2017-12-02T03:16:55.353Z,1009.02
2017-12-02T03:17:35.915Z,1009.06
2017-12-02T03:18:16.422Z,1009.05
2017-12-02T03:18:56.958Z,1009.02
2017-12-02T03:19:37.485Z,1009.11
2017-12-02T03:20:18.015Z,1009.05
2017-12-02T03:20:58.602Z,1009.12
2017-12-02T03:21:39.113Z,1009.13
2017-12-02T03:22:19.681Z,1009.16
2017-12-02T03:23:00.253Z,1009.17
2017-12-02T03:23:40.877Z,1009.1
2017-12-02T03:24:21.375Z,1009.12
2017-12-02T03:25:01.892Z,1009.11
2017-12-02T03:25:42.436Z,1009.19
2017-12-02T03:26:22.945Z,1009.14
2017-12-02T03:27:03.489Z,1009.24
2017-12-02T03:27:43.997Z,1009.2
2017-12-02T03:28:24.523Z,1009.15
2017-12-02T03:29:05.090Z,1009.15
2017-12-02T03:29:45.626Z,1009.2
2017-12-02T03:30:26.171Z,1009.22
2017-12-02T03:31:06.711Z,1009.25
2017-12-02T03:31:47.251Z,1009.25
2017-12-02T03:32:27.739Z,1009.25
2017-12-02T03:33:08.308Z,1009.28
2017-12-02T03:33:48.843Z,1009.21
2017-12-02T03:34:29.358Z,1009.24
2017-12-02T03:35:09.863Z,1009.27
2017-12-02T03:35:50.398Z,1009.33
2017-12-02T03:36:30.910Z,1009.29
2017-12-02T03:37:11.422Z,1009.22
2017-12-02T03:37:51.968Z,1009.25
2017-12-02T03:38:32.468Z,1009.25
2017-12-02T03:39:13.016Z,1009.3
2017-12-02T03:39:53.549Z,1009.24
2017-12-02T03:40:34.075Z,1009.27
2017-12-02T03:41:14.597Z,1009.33
2017-12-02T03:41:55.153Z,1009.29
2017-12-02T03:42:35.701Z,1009.31
2017-12-02T03:43:16.219Z,1009.3
2017-12-02T03:43:56.748Z,1009.33
2017-12-02T03:44:37.270Z,1009.34
2017-12-02T03:45:17.789Z,1009.35
2017-12-02T03:45:58.337Z,1009.32
2017-12-02T03:46:38.903Z,1009.35
2017-12-02T03:47:19.403Z,1009.39
2017-12-02T03:47:59.907Z,1009.39
2017-12-02T03:48:40.475Z,1009.33
2017-12-02T03:49:20.982Z,1009.3
2017-12-02T03:50:01.514Z,1009.36
2017-12-02T03:50:42.060Z,1009.36
2017-12-02T03:51:22.579Z,1009.38
2017-12-02T03:52:03.102Z,1009.39
2017-12-02T03:52:43.622Z,1009.42
2017-12-02T03:53:24.143Z,1009.43
2017-12-02T03:54:04.725Z,1009.42
2017-12-02T03:54:45.274Z,1009.41
2017-12-02T03:55:25.768Z,1009.43
2017-12-02T03:56:06.293Z,1009.38
2017-12-02T03:56:46.891Z,1009.4
2017-12-02T03:57:27.390Z,1009.41
2017-12-02T03:58:07.906Z,1009.42
2017-12-02T03:58:48.421Z,1009.38
2017-12-02T03:59:28.938Z,1009.46
2017-12-02T04:00:09.453Z,1009.44
2017-12-02T04:00:50.012Z,1009.43
2017-12-02T04:01:30.525Z,1009.49
2017-12-02T04:02:11.080Z,1009.54
2017-12-02T04:02:51.584Z,1009.52
2017-12-02T04:03:32.144Z,1009.53
2017-12-02T04:04:12.676Z,1009.52
2017-12-02T04:04:53.218Z,1009.55
2017-12-02T04:05:33.776Z,1009.53
2017-12-02T04:06:14.370Z,1009.57
2017-12-02T04:06:54.896Z,1009.59
2017-12-02T04:07:35.452Z,1009.62
2017-12-02T04:08:15.980Z,1009.56
2017-12-02T04:08:56.538Z,1009.55
2017-12-02T04:09:37.040Z,1009.58
2017-12-02T04:10:17.580Z,1009.58
2017-12-02T04:10:58.133Z,1009.59
2017-12-02T04:11:38.636Z,1009.6
2017-12-02T04:12:19.186Z,1009.56
2017-12-02T04:12:59.724Z,1009.63
2017-12-02T04:13:40.274Z,1009.65
2017-12-02T04:14:20.795Z,1009.65
2017-12-02T04:15:01.326Z,1009.65
2017-12-02T04:15:41.848Z,1009.66
2017-12-02T04:16:22.392Z,1009.63
2017-12-02T04:17:02.923Z,1009.63
2017-12-02T04:17:43.429Z,1009.66
2017-12-02T04:18:23.957Z,1009.68
2017-12-02T04:19:04.486Z,1009.63
2017-12-02T04:19:45.021Z,1009.63
2017-12-02T04:20:25.506Z,1009.6
2017-12-02T04:21:06.052Z,1009.63
2017-12-02T04:21:46.572Z,1009.62
2017-12-02T04:22:27.090Z,1009.63
2017-12-02T04:23:07.635Z,1009.63
2017-12-02T04:23:48.180Z,1009.63
2017-12-02T04:24:28.700Z,1009.64
2017-12-02T04:25:09.234Z,1009.6
2017-12-02T04:25:49.738Z,1009.6
2017-12-02T04:26:30.410Z,1009.63
2017-12-02T04:27:10.909Z,1009.59
2017-12-02T04:27:51.454Z,1009.62
2017-12-02T04:28:31.966Z,1009.65
2017-12-02T04:29:12.519Z,1009.61
2017-12-02T04:29:53.009Z,1009.63
2017-12-02T04:30:33.568Z,1009.64
2017-12-02T04:31:14.060Z,1009.65
2017-12-02T04:31:54.622Z,1009.62
2017-12-02T04:32:35.110Z,1009.64
2017-12-02T04:33:15.659Z,1009.64
2017-12-02T04:33:56.207Z,1009.67
2017-12-02T04:34:36.778Z,1009.67
2017-12-02T04:35:17.304Z,1009.66
2017-12-02T04:35:57.851Z,1009.66
2017-12-02T04:36:38.403Z,1009.61
2017-12-02T04:37:18.971Z,1009.68
2017-12-02T04:37:59.504Z,1009.67
2017-12-02T04:38:40.021Z,1009.66
2017-12-02T04:39:20.570Z,1009.63
2017-12-02T04:40:01.097Z,1009.64
2017-12-02T04:40:41.657Z,1009.66
2017-12-02T04:41:22.154Z,1009.7
2017-12-02T04:42:02.683Z,1009.74
2017-12-02T04:42:43.268Z,1009.76
2017-12-02T04:43:23.782Z,1009.74
2017-12-02T04:44:04.285Z,1009.76
2017-12-02T04:44:44.837Z,1009.71
2017-12-02T04:45:25.349Z,1009.74
2017-12-02T04:46:05.884Z,1009.72
2017-12-02T04:46:46.414Z,1009.72
2017-12-02T04:47:27.090Z,1009.73
2017-12-02T04:48:07.637Z,1009.74
2017-12-02T04:48:48.148Z,1009.76
2017-12-02T04:49:28.672Z,1009.73
2017-12-02T04:50:09.244Z,1009.75
2017-12-02T04:50:49.741Z,1009.73
2017-12-02T04:51:30.275Z,1009.74
2017-12-02T04:52:10.798Z,1009.72
2017-12-02T04:52:51.351Z,1009.77
2017-12-02T04:53:31.878Z,1009.75
2017-12-02T04:54:12.404Z,1009.74
2017-12-02T04:54:52.961Z,1009.74
2017-12-02T04:55:33.490Z,1009.79
2017-12-02T04:56:13.988Z,1009.77
2017-12-02T04:56:54.502Z,1009.8
2017-12-02T04:57:35.048Z,1009.83
2017-12-02T04:58:15.592Z,1009.8
2017-12-02T04:58:56.146Z,1009.86
2017-12-02T04:59:36.684Z,1009.78
2017-12-02T05:00:17.192Z,1009.82
2017-12-02T05:00:57.706Z,1009.84
2017-12-02T05:01:38.237Z,1009.82
2017-12-02T05:02:18.778Z,1009.79
2017-12-02T05:02:59.342Z,1009.81
2017-12-02T05:03:39.817Z,1009.76
2017-12-02T05:04:20.360Z,1009.79
2017-12-02T05:05:00.883Z,1009.77
2017-12-02T05:05:41.394Z,1009.8
2017-12-02T05:06:21.904Z,1009.8
2017-12-02T05:07:02.447Z,1009.82
2017-12-02T05:07:42.963Z,1009.83
2017-12-02T05:08:23.545Z,1009.83
2017-12-02T05:09:04.029Z,1009.86
2017-12-02T05:09:44.562Z,1009.85
2017-12-02T05:10:25.151Z,1009.88
2017-12-02T05:11:05.670Z,1009.91
2017-12-02T05:11:46.165Z,1009.82
2017-12-02T05:12:26.693Z,1009.88
2017-12-02T05:13:07.233Z,1009.83
2017-12-02T05:13:47.845Z,1009.93
2017-12-02T05:14:28.306Z,1009.82
2017-12-02T05:15:08.820Z,1009.82
2017-12-02T05:15:49.343Z,1009.81
2017-12-02T05:16:29.865Z,1009.87
2017-12-02T05:17:10.408Z,1009.86
2017-12-02T05:17:50.911Z,1009.88
2017-12-02T05:18:31.442Z,1009.89
2017-12-02T05:19:12.044Z,1009.87
2017-12-02T05:19:52.546Z,1009.9
2017-12-02T05:20:33.078Z,1009.93
2017-12-02T05:21:13.584Z,1009.86
2017-12-02T05:21:54.137Z,1009.9
2017-12-02T05:22:34.654Z,1009.9
2017-12-02T05:23:15.155Z,1009.89
2017-12-02T05:23:55.680Z,1009.9
2017-12-02T05:24:36.231Z,1009.86
2017-12-02T05:25:16.753Z,1009.82
2017-12-02T05:25:57.285Z,1009.83
2017-12-02T05:26:37.811Z,1009.83
2017-12-02T05:27:18.358Z,1009.86
2017-12-02T05:27:58.862Z,1009.86
2017-12-02T05:28:39.418Z,1009.85
2017-12-02T05:29:19.974Z,1009.88
2017-12-02T05:30:00.556Z,1009.93
2017-12-02T05:30:41.060Z,1009.87
2017-12-02T05:31:21.613Z,1009.93
2017-12-02T05:32:02.123Z,1009.93
2017-12-02T05:32:42.640Z,1009.97
2017-12-02T05:33:23.191Z,1009.97
2017-12-02T05:34:03.715Z,1009.95
2017-12-02T05:34:44.235Z,1009.97
2017-12-02T05:35:24.759Z,1009.99
2017-12-02T05:36:05.263Z,1009.99
2017-12-02T05:36:45.807Z,1010.01
2017-12-02T05:37:26.336Z,1010.06
2017-12-02T05:38:06.891Z,1010.09
2017-12-02T05:38:47.379Z,1010.04
2017-12-02T05:39:27.950Z,1010.05
2017-12-02T05:40:08.450Z,1010.1
2017-12-02T05:40:48.967Z,1010.12
2017-12-02T05:41:29.503Z,1010.14
2017-12-02T05:42:10.015Z,1010.19
2017-12-02T05:42:50.582Z,1010.19
2017-12-02T05:43:31.113Z,1010.23
2017-12-02T05:44:11.632Z,1010.29
2017-12-02T05:44:52.177Z,1010.28
2017-12-02T05:45:32.728Z,1010.33
2017-12-02T05:46:13.252Z,1010.34
2017-12-02T05:46:53.804Z,1010.35
2017-12-02T05:47:34.283Z,1010.37
2017-12-02T05:48:14.851Z,1010.35
2017-12-02T05:48:55.353Z,1010.41
2017-12-02T05:49:35.842Z,1010.42
2017-12-02T05:50:16.383Z,1010.46
2017-12-02T05:50:56.954Z,1010.49
2017-12-02T05:51:37.468Z,1010.52
2017-12-02T05:52:18.035Z,1010.54
2017-12-02T05:52:58.543Z,1010.51
2017-12-02T05:53:39.106Z,1010.53
2017-12-02T05:54:19.592Z,1010.54
2017-12-02T05:55:00.113Z,1010.56
2017-12-02T05:55:40.658Z,1010.57
2017-12-02T05:56:21.154Z,1010.56
2017-12-02T05:57:01.714Z,1010.58
2017-12-02T05:57:42.213Z,1010.58
2017-12-02T05:58:22.763Z,1010.56
2017-12-02T05:59:03.280Z,1010.56
2017-12-02T05:59:43.815Z,1010.58
2017-12-02T06:00:24.362Z,1010.54
2017-12-02T06:01:04.858Z,1010.55
2017-12-02T06:01:45.384Z,1010.55
2017-12-02T06:02:25.960Z,1010.6
2017-12-02T06:03:06.510Z,1010.6
2017-12-02T06:03:47.053Z,1010.62
2017-12-02T06:04:27.588Z,1010.64
2017-12-02T06:05:08.179Z,1010.62
2017-12-02T06:05:48.692Z,1010.6
2017-12-02T06:06:29.198Z,1010.62
2017-12-02T06:07:09.752Z,1010.64
2017-12-02T06:07:50.274Z,1010.59
2017-12-02T06:08:30.834Z,1010.55
2017-12-02T06:09:11.354Z,1010.58
2017-12-02T06:09:51.950Z,1010.61
2017-12-02T06:10:32.494Z,1010.56
2017-12-02T06:11:13.073Z,1010.57
2017-12-02T06:11:53.636Z,1010.55
2017-12-02T06:12:34.181Z,1010.56
2017-12-02T06:13:14.665Z,1010.53
2017-12-02T06:13:55.213Z,1010.5
2017-12-02T06:14:35.746Z,1010.57
2017-12-02T06:15:16.267Z,1010.56
2017-12-02T06:15:56.821Z,1010.56
2017-12-02T06:16:37.312Z,1010.59
2017-12-02T06:17:17.828Z,1010.6
2017-12-02T06:17:58.344Z,1010.59
2017-12-02T06:18:38.916Z,1010.66
2017-12-02T06:19:19.451Z,1010.62
2017-12-02T06:19:59.956Z,1010.62
2017-12-02T06:20:40.555Z,1010.64
2017-12-02T06:21:21.060Z,1010.66
2017-12-02T06:22:01.572Z,1010.72
2017-12-02T06:22:42.161Z,1010.74
2017-12-02T06:23:22.678Z,1010.71
2017-12-02T06:24:03.264Z,1010.69
2017-12-02T06:24:43.693Z,1010.72
2017-12-02T06:25:24.232Z,1010.72
2017-12-02T06:26:04.787Z,1010.69
2017-12-02T06:26:45.299Z,1010.7
2017-12-02T06:27:25.835Z,1010.7
2017-12-02T06:28:06.370Z,1010.69
2017-12-02T06:28:46.888Z,1010.71
2017-12-02T06:29:27.416Z,1010.73
2017-12-02T06:30:07.996Z,1010.75
2017-12-02T06:30:48.508Z,1010.72
2017-12-02T06:31:29.058Z,1010.72
2017-12-02T06:32:09.610Z,1010.79
2017-12-02T06:32:50.068Z,1010.78
2017-12-02T06:33:30.618Z,1010.7
2017-12-02T06:34:11.126Z,1010.77
2017-12-02T06:34:51.657Z,1010.75
2017-12-02T06:35:32.187Z,1010.71
2017-12-02T06:36:12.765Z,1010.74
2017-12-02T06:36:53.291Z,1010.72
2017-12-02T06:37:33.865Z,1010.71
2017-12-02T06:38:14.365Z,1010.74
2017-12-02T06:38:54.944Z,1010.78
2017-12-02T06:39:35.462Z,1010.75
2017-12-02T06:40:16.018Z,1010.82
2017-12-02T06:40:56.537Z,1010.76
2017-12-02T06:41:37.093Z,1010.78
2017-12-02T06:42:17.704Z,1010.77
2017-12-02T06:42:58.201Z,1010.77
2017-12-02T06:43:38.761Z,1010.72
2017-12-02T06:44:19.324Z,1010.7
2017-12-02T06:44:59.825Z,1010.74
2017-12-02T06:45:40.375Z,1010.72
2017-12-02T06:46:20.890Z,1010.75
2017-12-02T06:47:01.441Z,1010.81
2017-12-02T06:47:41.959Z,1010.76
2017-12-02T06:48:22.488Z,1010.81
2017-12-02T06:49:03.012Z,1010.84
2017-12-02T06:49:43.557Z,1010.83
2017-12-02T06:50:24.121Z,1010.82
2017-12-02T06:51:04.631Z,1010.8
2017-12-02T06:51:45.173Z,1010.83
2017-12-02T06:52:25.642Z,1010.82
2017-12-02T06:53:06.204Z,1010.81
2017-12-02T06:53:46.779Z,1010.78
2017-12-02T06:54:27.292Z,1010.83
2017-12-02T06:55:07.832Z,1010.83
2017-12-02T06:55:48.351Z,1010.84
2017-12-02T06:56:28.856Z,1010.87
2017-12-02T06:57:09.376Z,1010.92
2017-12-02T06:57:49.917Z,1010.93
2017-12-02T06:58:30.499Z,1010.96
2017-12-02T06:59:11.006Z,1010.95
2017-12-02T06:59:51.529Z,1011.04
2017-12-02T07:00:32.115Z,1011.01
2017-12-02T07:01:12.677Z,1011.01
2017-12-02T07:01:53.250Z,1011.01
2017-12-02T07:02:33.762Z,1011.07
2017-12-02T07:03:14.335Z,1011.03
2017-12-02T07:03:54.874Z,1011.1
2017-12-02T07:04:35.416Z,1011.01
2017-12-02T07:05:15.944Z,1011.05
2017-12-02T07:05:56.464Z,1011.01
2017-12-02T07:06:36.983Z,1011.05
2017-12-02T07:07:17.509Z,1011.04
2017-12-02T07:07:57.997Z,1011.05
2017-12-02T07:08:38.524Z,1011.02
2017-12-02T07:09:19.121Z,1011.05
2017-12-02T07:09:59.679Z,1011.04
2017-12-02T07:10:40.381Z,1011.08
2017-12-02T07:11:20.880Z,1011.08
2017-12-02T07:12:01.423Z,1011.12
2017-12-02T07:12:41.961Z,1011.14
2017-12-02T07:13:22.533Z,1011.12
2017-12-02T07:14:03.050Z,1011.17
2017-12-02T07:14:43.563Z,1011.16
2017-12-02T07:15:24.099Z,1011.18
2017-12-02T07:16:04.648Z,1011.16
2017-12-02T07:16:45.156Z,1011.13
2017-12-02T07:17:25.701Z,1011.14
2017-12-02T07:18:06.209Z,1011.17
2017-12-02T07:18:46.789Z,1011.15
2017-12-02T07:19:27.316Z,1011.16
2017-12-02T07:20:07.867Z,1011.11
2017-12-02T07:20:48.377Z,1011.17
2017-12-02T07:21:28.910Z,1011.2
2017-12-02T07:22:09.434Z,1011.15
2017-12-02T07:22:49.991Z,1011.23
2017-12-02T07:23:30.466Z,1011.2
2017-12-02T07:24:11.012Z,1011.19
2017-12-02T07:24:51.562Z,1011.19
2017-12-02T07:25:32.069Z,1011.18
2017-12-02T07:26:12.600Z,1011.19
2017-12-02T07:26:53.171Z,1011.2
2017-12-02T07:27:33.691Z,1011.18
2017-12-02T07:28:14.200Z,1011.2
2017-12-02T07:28:54.760Z,1011.15
2017-12-02T07:29:35.293Z,1011.24
2017-12-02T07:30:15.832Z,1011.21
2017-12-02T07:30:56.372Z,1011.22
2017-12-02T07:31:36.893Z,1011.26
2017-12-02T07:32:17.398Z,1011.25
2017-12-02T07:32:57.957Z,1011.24
2017-12-02T07:33:38.549Z,1011.21
2017-12-02T07:34:19.098Z,1011.26
2017-12-02T07:34:59.786Z,1011.26
2017-12-02T07:35:40.192Z,1011.23
2017-12-02T07:36:20.831Z,1011.27
2017-12-02T07:37:01.356Z,1011.28
2017-12-02T07:37:41.888Z,1011.27
2017-12-02T07:38:22.393Z,1011.25
2017-12-02T07:39:02.982Z,1011.23
2017-12-02T07:39:43.495Z,1011.21
2017-12-02T07:40:24.003Z,1011.19
2017-12-02T07:41:04.494Z,1011.18
2017-12-02T07:41:45.033Z,1011.2
2017-12-02T07:42:25.556Z,1011.24
2017-12-02T07:43:06.053Z,1011.25
2017-12-02T07:43:46.577Z,1011.27
2017-12-02T07:44:27.075Z,1011.24
2017-12-02T07:45:07.602Z,1011.29
2017-12-02T07:45:48.134Z,1011.23
2017-12-02T07:46:28.799Z,1011.24
2017-12-02T07:47:09.319Z,1011.25
2017-12-02T07:47:49.873Z,1011.26
2017-12-02T07:48:30.406Z,1011.18
2017-12-02T07:49:10.964Z,1011.35
2017-12-02T07:49:51.478Z,1011.24
2017-12-02T07:50:32.023Z,1011.27
2017-12-02T07:51:12.518Z,1011.27
2017-12-02T07:51:53.054Z,1011.29
2017-12-02T07:52:33.598Z,1011.24
2017-12-02T07:53:14.140Z,1011.34
2017-12-02T07:53:54.647Z,1011.29
2017-12-02T07:54:35.148Z,1011.31
2017-12-02T07:55:15.690Z,1011.38
2017-12-02T07:55:56.280Z,1011.35
2017-12-02T07:56:36.825Z,1011.38
2017-12-02T07:57:17.354Z,1011.36
2017-12-02T07:57:57.858Z,1011.34
2017-12-02T07:58:38.390Z,1011.39
2017-12-02T07:59:18.954Z,1011.39
2017-12-02T07:59:59.497Z,1011.35
2017-12-02T08:00:40.005Z,1011.35
2017-12-02T08:01:20.537Z,1011.4
2017-12-02T08:02:01.136Z,1011.4
2017-12-02T08:02:41.614Z,1011.41
2017-12-02T08:03:22.154Z,1011.4
2017-12-02T08:04:02.656Z,1011.36
2017-12-02T08:04:43.237Z,1011.41
2017-12-02T08:05:23.732Z,1011.44
2017-12-02T08:06:04.264Z,1011.38
2017-12-02T08:06:44.825Z,1011.42
2017-12-02T08:07:25.401Z,1011.39
2017-12-02T08:08:05.973Z,1011.37
2017-12-02T08:08:46.486Z,1011.41
2017-12-02T08:09:27.050Z,1011.33
2017-12-02T08:10:07.593Z,1011.41
2017-12-02T08:10:48.117Z,1011.39
2017-12-02T08:11:28.692Z,1011.39